Terminal Aerodrome Forecast
Issued by NWS

Home | Current Version | Previous Version | Text Only | Print | Product List | Glossary On
Versions: 1 2 3 4 5 6 7 8 9 10 11 12 13 14 15 16 17 18 19 20 21
000
FTAK31 PAJN 201700
TAFAKT
TAF
PAKT 201724Z 2018/2118 12012KT P6SM -SHRA SCT008 BKN020 OVC030
     FM210000 14008KT P6SM VCSH SCT025 BKN040 OVC060
     FM210800 14012KT P6SM SCT025 OVC050 PROB30 2108/2111 -RA
     FM211100 14018G30KT P6SM -RA BKN030 OVC040
      AMD LTD TO CLD VIS AND WIND 2106/2115=

USA.gov is the U.S. government's official web portal to all federal, state and local government web resources and services.